sensor_id;sensor_type;location;lat;lon;timestamp;pressure;altitude;pressure_sealevel;temperature;humidity
78337;BME280;67610;51.588;7.002;2023-07-13T00:00:24;100686.44;;;19.60;51.02
78337;BME280;67610;51.588;7.002;2023-07-13T00:02:49;100702.84;;;19.57;51.13
78337;BME280;67610;51.588;7.002;2023-07-13T00:05:14;100690.34;;;19.51;51.07
78337;BME280;67610;51.588;7.002;2023-07-13T00:07:40;100694.66;;;19.52;51.30
78337;BME280;67610;51.588;7.002;2023-07-13T00:10:06;100697.97;;;19.54;50.87
78337;BME280;67610;51.588;7.002;2023-07-13T00:12:37;100702.66;;;19.52;50.84
78337;BME280;67610;51.588;7.002;2023-07-13T00:15:10;100691.38;;;19.50;50.65
78337;BME280;67610;51.588;7.002;2023-07-13T00:17:37;100699.19;;;19.52;50.38
78337;BME280;67610;51.588;7.002;2023-07-13T00:20:04;100696.72;;;19.50;50.24
78337;BME280;67610;51.588;7.002;2023-07-13T00:22:30;100690.97;;;19.46;49.99
78337;BME280;67610;51.588;7.002;2023-07-13T00:24:55;100693.03;;;19.44;50.05
78337;BME280;67610;51.588;7.002;2023-07-13T00:27:22;100695.28;;;19.47;49.58
78337;BME280;67610;51.588;7.002;2023-07-13T00:29:47;100693.22;;;19.43;49.39
78337;BME280;67610;51.588;7.002;2023-07-13T00:32:13;100686.69;;;19.39;49.42
78337;BME280;67610;51.588;7.002;2023-07-13T00:34:39;100688.09;;;19.35;49.18
78337;BME280;67610;51.588;7.002;2023-07-13T00:37:05;100698.75;;;19.35;49.08
78337;BME280;67610;51.588;7.002;2023-07-13T00:39:34;100693.84;;;19.32;49.36
78337;BME280;67610;51.588;7.002;2023-07-13T00:42:01;100689.72;;;19.29;49.43
78337;BME280;67610;51.588;7.002;2023-07-13T00:44:27;100691.78;;;19.27;49.26
78337;BME280;67610;51.588;7.002;2023-07-13T00:46:52;100689.13;;;19.27;49.35
78337;BME280;67610;51.588;7.002;2023-07-13T00:49:20;100691.78;;;19.27;49.20
78337;BME280;67610;51.588;7.002;2023-07-13T00:51:55;100685.63;;;19.20;48.98
78337;BME280;67610;51.588;7.002;2023-07-13T00:54:26;100690.56;;;19.17;49.01
78337;BME280;67610;51.588;7.002;2023-07-13T00:56:55;100690.56;;;19.10;49.30
78337;BME280;67610;51.588;7.002;2023-07-13T00:59:23;100695.88;;;19.10;49.17
78337;BME280;67610;51.588;7.002;2023-07-13T01:01:49;100689.75;;;19.10;49.15
78337;BME280;67610;51.588;7.002;2023-07-13T01:04:16;100690.56;;;19.10;48.87
78337;BME280;67610;51.588;7.002;2023-07-13T01:06:42;100688.94;;;19.03;48.91
78337;BME280;67610;51.588;7.002;2023-07-13T01:09:09;100690.16;;;19.00;49.12
78337;BME280;67610;51.588;7.002;2023-07-13T01:11:36;100686.06;;;18.98;49.24
78337;BME280;67610;51.588;7.002;2023-07-13T01:14:02;100692.84;;;18.94;49.50
78337;BME280;67610;51.588;7.002;2023-07-13T01:16:31;100690.34;;;18.92;49.62
78337;BME280;67610;51.588;7.002;2023-07-13T01:18:56;100694.25;;;18.90;49.74
78337;BME280;67610;51.588;7.002;2023-07-13T01:21:28;100694.88;;;18.92;49.56
78337;BME280;67610;51.588;7.002;2023-07-13T01:23:53;100704.91;;;18.90;49.82
78337;BME280;67610;51.588;7.002;2023-07-13T01:26:19;100695.06;;;18.83;49.65
78337;BME280;67610;51.588;7.002;2023-07-13T01:28:44;100692.19;;;18.78;49.84
78337;BME280;67610;51.588;7.002;2023-07-13T01:31:10;100684.81;;;18.74;50.15
78337;BME280;67610;51.588;7.002;2023-07-13T01:33:38;100683.78;;;18.75;50.24
78337;BME280;67610;51.588;7.002;2023-07-13T01:36:05;100688.06;;;18.69;50.47
78337;BME280;67610;51.588;7.002;2023-07-13T01:38:31;100688.91;;;18.63;50.24
78337;BME280;67610;51.588;7.002;2023-07-13T01:40:56;100692.97;;;18.59;50.62
78337;BME280;67610;51.588;7.002;2023-07-13T01:43:21;100692.56;;;18.62;50.50
78337;BME280;67610;51.588;7.002;2023-07-13T01:45:47;100687.63;;;18.53;50.80
78337;BME280;67610;51.588;7.002;2023-07-13T01:48:13;100689.63;;;18.44;51.11
78337;BME280;67610;51.588;7.002;2023-07-13T01:50:39;100696.66;;;18.45;51.14
78337;BME280;67610;51.588;7.002;2023-07-13T01:53:04;100694.97;;;18.44;50.97
78337;BME280;67610;51.588;7.002;2023-07-13T01:55:31;100694.97;;;18.44;50.95
78337;BME280;67610;51.588;7.002;2023-07-13T01:57:56;100701.13;;;18.45;50.92
78337;BME280;67610;51.588;7.002;2023-07-13T02:00:22;100701.28;;;18.43;51.10
78337;BME280;67610;51.588;7.002;2023-07-13T02:02:47;100698.63;;;18.43;51.13
78337;BME280;67610;51.588;7.002;2023-07-13T02:05:13;100709.28;;;18.43;51.02
78337;BME280;67610;51.588;7.002;2023-07-13T02:07:39;100705.81;;;18.43;51.07
78337;BME280;67610;51.588;7.002;2023-07-13T02:10:06;100706.06;;;18.48;50.91
78337;BME280;67610;51.588;7.002;2023-07-13T02:12:32;100704.44;;;18.47;50.77
78337;BME280;67610;51.588;7.002;2023-07-13T02:14:57;100701.13;;;18.45;51.13
78337;BME280;67610;51.588;7.002;2023-07-13T02:17:22;100710.59;;;18.47;51.09
78337;BME280;67610;51.588;7.002;2023-07-13T02:19:48;100696.81;;;18.44;51.16
78337;BME280;67610;51.588;7.002;2023-07-13T02:22:13;100694.75;;;18.39;51.72
78337;BME280;67610;51.588;7.002;2023-07-13T02:24:39;100698.38;;;18.32;51.44
78337;BME280;67610;51.588;7.002;2023-07-13T02:27:05;100697.38;;;18.33;51.66
78337;BME280;67610;51.588;7.002;2023-07-13T02:29:30;100705.16;;;18.34;51.60
78337;BME280;67610;51.588;7.002;2023-07-13T02:31:55;100707.63;;;18.29;51.64
78337;BME280;67610;51.588;7.002;2023-07-13T02:34:21;100705.16;;;18.28;51.51
78337;BME280;67610;51.588;7.002;2023-07-13T02:36:46;100703.53;;;18.27;51.79
78337;BME280;67610;51.588;7.002;2023-07-13T02:39:12;100716.00;;;18.26;51.70
78337;BME280;67610;51.588;7.002;2023-07-13T02:41:37;100709.66;;;18.27;51.98
78337;BME280;67610;51.588;7.002;2023-07-13T02:44:03;100709.03;;;18.25;51.72
78337;BME280;67610;51.588;7.002;2023-07-13T02:46:33;100701.47;;;18.22;51.94
78337;BME280;67610;51.588;7.002;2023-07-13T02:48:59;100706.13;;;18.20;52.17
78337;BME280;67610;51.588;7.002;2023-07-13T02:51:24;100703.88;;;18.17;52.26
78337;BME280;67610;51.588;7.002;2023-07-13T02:53:50;100703.06;;;18.17;52.59
78337;BME280;67610;51.588;7.002;2023-07-13T02:56:15;100711.66;;;18.19;52.51
78337;BME280;67610;51.588;7.002;2023-07-13T02:58:40;100709.41;;;18.15;53.01
78337;BME280;67610;51.588;7.002;2023-07-13T03:01:08;100721.69;;;18.10;52.77
78337;BME280;67610;51.588;7.002;2023-07-13T03:03:34;100713.47;;;18.05;52.87
78337;BME280;67610;51.588;7.002;2023-07-13T03:06:01;100723.28;;;18.04;53.06
78337;BME280;67610;51.588;7.002;2023-07-13T03:08:28;100719.00;;;18.03;53.22
78337;BME280;67610;51.588;7.002;2023-07-13T03:11:01;100726.97;;;18.03;53.33
78337;BME280;67610;51.588;7.002;2023-07-13T03:13:27;100727.16;;;18.02;53.29
78337;BME280;67610;51.588;7.002;2023-07-13T03:15:52;100729.63;;;18.03;53.38
78337;BME280;67610;51.588;7.002;2023-07-13T03:18:18;100730.25;;;18.05;53.31
78337;BME280;67610;51.588;7.002;2023-07-13T03:20:43;100725.56;;;18.07;53.18
78337;BME280;67610;51.588;7.002;2023-07-13T03:23:09;100731.25;;;18.04;53.34
78337;BME280;67610;51.588;7.002;2023-07-13T03:25:34;100727.38;;;18.00;53.29
78337;BME280;67610;51.588;7.002;2023-07-13T03:27:59;100726.75;;;17.98;53.51
78337;BME280;67610;51.588;7.002;2023-07-13T03:30:25;100727.34;;;17.94;53.20
78337;BME280;67610;51.588;7.002;2023-07-13T03:32:50;100741.84;;;17.91;53.52
78337;BME280;67610;51.588;7.002;2023-07-13T03:35:16;100738.75;;;17.88;54.09
78337;BME280;67610;51.588;7.002;2023-07-13T03:37:42;100733.41;;;17.88;54.09
78337;BME280;67610;51.588;7.002;2023-07-13T03:40:08;100734.69;;;17.92;54.10
78337;BME280;67610;51.588;7.002;2023-07-13T03:42:34;100732.41;;;17.89;54.25
78337;BME280;67610;51.588;7.002;2023-07-13T03:44:59;100733.63;;;17.86;54.42
78337;BME280;67610;51.588;7.002;2023-07-13T03:47:24;100741.84;;;17.91;54.75
78337;BME280;67610;51.588;7.002;2023-07-13T03:49:50;100754.56;;;17.96;54.50
78337;BME280;67610;51.588;7.002;2023-07-13T03:52:15;100755.41;;;17.96;54.41
78337;BME280;67610;51.588;7.002;2023-07-13T03:54:40;100755.63;;;18.01;54.01
78337;BME280;67610;51.588;7.002;2023-07-13T03:57:06;100760.75;;;18.03;54.45
78337;BME280;67610;51.588;7.002;2023-07-13T03:59:32;100757.28;;;18.09;54.40
78337;BME280;67610;51.588;7.002;2023-07-13T04:01:57;100757.13;;;18.17;54.50
78337;BME280;67610;51.588;7.002;2023-07-13T04:04:22;100759.38;;;18.20;54.42
78337;BME280;67610;51.588;7.002;2023-07-13T04:06:48;100757.16;;;18.24;54.19
78337;BME280;67610;51.588;7.002;2023-07-13T04:09:13;100759.03;;;18.30;54.12
78337;BME280;67610;51.588;7.002;2023-07-13T04:11:39;100761.31;;;18.33;54.00
78337;BME280;67610;51.588;7.002;2023-07-13T04:14:04;100765.63;;;18.40;53.76
78337;BME280;67610;51.588;7.002;2023-07-13T04:16:30;100769.38;;;18.46;53.89
78337;BME280;67610;51.588;7.002;2023-07-13T04:18:57;100777.78;;;18.49;53.79
78337;BME280;67610;51.588;7.002;2023-07-13T04:21:26;100780.25;;;18.57;53.56
78337;BME280;67610;51.588;7.002;2023-07-13T04:23:52;100778.22;;;18.59;53.85
78337;BME280;67610;51.588;7.002;2023-07-13T04:26:18;100779.47;;;18.63;53.66
78337;BME280;67610;51.588;7.002;2023-07-13T04:28:46;100782.38;;;18.68;53.77
78337;BME280;67610;51.588;7.002;2023-07-13T04:31:12;100775.63;;;18.72;53.50
78337;BME280;67610;51.588;7.002;2023-07-13T04:33:37;100778.47;;;18.71;53.68
78337;BME280;67610;51.588;7.002;2023-07-13T04:36:03;100782.56;;;18.73;53.71
78337;BME280;67610;51.588;7.002;2023-07-13T04:38:31;100771.94;;;18.80;53.50
78337;BME280;67610;51.588;7.002;2023-07-13T04:41:00;100779.53;;;18.83;53.91
78337;BME280;67610;51.588;7.002;2023-07-13T04:43:26;100778.91;;;18.88;53.49
78337;BME280;67610;51.588;7.002;2023-07-13T04:45:52;100786.91;;;18.88;53.67
78337;BME280;67610;51.588;7.002;2023-07-13T04:48:21;100780.56;;;18.89;54.00
78337;BME280;67610;51.588;7.002;2023-07-13T04:50:47;100788.78;;;18.87;53.77
78337;BME280;67610;51.588;7.002;2023-07-13T04:53:13;100791.44;;;18.87;54.06
78337;BME280;67610;51.588;7.002;2023-07-13T04:55:38;100786.53;;;18.91;53.90
78337;BME280;67610;51.588;7.002;2023-07-13T04:58:04;100791.88;;;18.97;54.36
78337;BME280;67610;51.588;7.002;2023-07-13T05:00:30;100790.63;;;19.00;53.88
78337;BME280;67610;51.588;7.002;2023-07-13T05:02:56;100797.19;;;19.04;53.72
78337;BME280;67610;51.588;7.002;2023-07-13T05:05:23;100795.97;;;19.13;53.83
78337;BME280;67610;51.588;7.002;2023-07-13T05:07:52;100794.97;;;19.14;53.78
78337;BME280;67610;51.588;7.002;2023-07-13T05:10:18;100798.88;;;19.18;53.60
78337;BME280;67610;51.588;7.002;2023-07-13T05:12:43;100804.81;;;19.07;54.06
78337;BME280;67610;51.588;7.002;2023-07-13T05:15:09;100802.75;;;19.15;53.96
78337;BME280;67610;51.588;7.002;2023-07-13T05:17:35;100799.28;;;19.21;53.94
78337;BME280;67610;51.588;7.002;2023-07-13T05:20:00;100799.69;;;19.31;53.86
78337;BME280;67610;51.588;7.002;2023-07-13T05:22:26;100803.19;;;19.32;53.77
78337;BME280;67610;51.588;7.002;2023-07-13T05:24:51;100804.66;;;19.41;53.68
78337;BME280;67610;51.588;7.002;2023-07-13T05:27:16;100807.53;;;19.46;53.50
78337;BME280;67610;51.588;7.002;2023-07-13T05:29:42;100803.03;;;19.53;53.54
78337;BME280;67610;51.588;7.002;2023-07-13T05:32:07;100805.09;;;19.51;53.72
78337;BME280;67610;51.588;7.002;2023-07-13T05:34:32;100810.41;;;19.51;53.73
78337;BME280;67610;51.588;7.002;2023-07-13T05:36:58;100811.03;;;19.66;53.60
78337;BME280;67610;51.588;7.002;2023-07-13T05:39:23;100819.44;;;19.76;53.26
78337;BME280;67610;51.588;7.002;2023-07-13T05:41:49;100819.03;;;19.79;52.99
78337;BME280;67610;51.588;7.002;2023-07-13T05:44:15;100812.84;;;19.92;53.12
78337;BME280;67610;51.588;7.002;2023-07-13T05:46:40;100820.63;;;20.13;52.88
78337;BME280;67610;51.588;7.002;2023-07-13T05:49:05;100819.97;;;20.31;52.07
78337;BME280;67610;51.588;7.002;2023-07-13T05:51:31;100825.50;;;20.49;51.81
78337;BME280;67610;51.588;7.002;2023-07-13T05:53:56;100830.94;;;20.73;51.51
78337;BME280;67610;51.588;7.002;2023-07-13T05:56:21;100833.16;;;20.83;51.29
78337;BME280;67610;51.588;7.002;2023-07-13T05:58:50;100835.19;;;20.87;51.11
78337;BME280;67610;51.588;7.002;2023-07-13T06:01:16;100838.84;;;20.93;51.36
78337;BME280;67610;51.588;7.002;2023-07-13T06:03:42;100843.13;;;21.01;51.19
78337;BME280;67610;51.588;7.002;2023-07-13T06:06:09;100847.44;;;21.08;50.80
78337;BME280;67610;51.588;7.002;2023-07-13T06:08:35;100849.50;;;21.06;50.95
78337;BME280;67610;51.588;7.002;2023-07-13T06:11:10;100845.78;;;21.07;50.50
78337;BME280;67610;51.588;7.002;2023-07-13T06:13:37;100846.81;;;21.37;50.02
78337;BME280;67610;51.588;7.002;2023-07-13T06:16:03;100848.78;;;21.55;49.65
78337;BME280;67610;51.588;7.002;2023-07-13T06:18:33;100852.88;;;21.58;49.91
78337;BME280;67610;51.588;7.002;2023-07-13T06:20:59;100854.00;;;21.68;49.71
78337;BME280;67610;51.588;7.002;2023-07-13T06:23:24;100863.06;;;21.67;49.41
78337;BME280;67610;51.588;7.002;2023-07-13T06:25:50;100871.75;;;21.63;49.78
78337;BME280;67610;51.588;7.002;2023-07-13T06:28:16;100874.19;;;21.71;49.35
78337;BME280;67610;51.588;7.002;2023-07-13T06:30:41;100875.13;;;21.83;48.98
78337;BME280;67610;51.588;7.002;2023-07-13T06:33:06;100869.00;;;22.00;48.79
78337;BME280;67610;51.588;7.002;2023-07-13T06:35:32;100870.44;;;22.21;48.23
78337;BME280;67610;51.588;7.002;2023-07-13T06:37:57;100880.94;;;22.22;48.34
78337;BME280;67610;51.588;7.002;2023-07-13T06:40:22;100881.59;;;22.18;48.94
78337;BME280;67610;51.588;7.002;2023-07-13T06:42:48;100880.16;;;22.40;48.71
78337;BME280;67610;51.588;7.002;2023-07-13T06:45:13;100877.63;;;22.45;47.96
78337;BME280;67610;51.588;7.002;2023-07-13T06:47:39;100886.25;;;22.47;48.56
78337;BME280;67610;51.588;7.002;2023-07-13T06:50:05;100887.22;;;22.53;48.21
78337;BME280;67610;51.588;7.002;2023-07-13T06:52:30;100880.00;;;22.53;47.86
78337;BME280;67610;51.588;7.002;2023-07-13T06:54:56;100892.75;;;22.76;47.96
78337;BME280;67610;51.588;7.002;2023-07-13T06:57:21;100890.16;;;22.69;47.44
78337;BME280;67610;51.588;7.002;2023-07-13T06:59:46;100885.09;;;22.61;47.49
78337;BME280;67610;51.588;7.002;2023-07-13T07:02:12;100899.84;;;22.70;47.72
78337;BME280;67610;51.588;7.002;2023-07-13T07:04:37;100892.69;;;22.82;47.67
78337;BME280;67610;51.588;7.002;2023-07-13T07:07:03;100893.16;;;23.09;46.42
78337;BME280;67610;51.588;7.002;2023-07-13T07:09:29;100901.53;;;22.83;47.18
78337;BME280;67610;51.588;7.002;2023-07-13T07:11:56;100900.56;;;22.96;46.63
78337;BME280;67610;51.588;7.002;2023-07-13T07:14:22;100898.91;;;22.94;46.99
78337;BME280;67610;51.588;7.002;2023-07-13T07:16:47;100903.41;;;23.01;46.86
78337;BME280;67610;51.588;7.002;2023-07-13T07:19:13;100906.72;;;23.14;45.90
78337;BME280;67610;51.588;7.002;2023-07-13T07:21:38;100905.56;;;23.10;46.64
78337;BME280;67610;51.588;7.002;2023-07-13T07:24:04;100903.03;;;23.27;46.60
78337;BME280;67610;51.588;7.002;2023-07-13T07:26:30;100905.75;;;23.56;45.28
78337;BME280;67610;51.588;7.002;2023-07-13T07:28:56;100907.59;;;23.56;45.47
78337;BME280;67610;51.588;7.002;2023-07-13T07:31:21;100904.06;;;23.44;46.13
78337;BME280;67610;51.588;7.002;2023-07-13T07:33:47;100900.84;;;23.65;45.89
78337;BME280;67610;51.588;7.002;2023-07-13T07:36:15;100906.59;;;23.92;45.00
78337;BME280;67610;51.588;7.002;2023-07-13T07:38:41;100902.53;;;24.01;44.94
78337;BME280;67610;51.588;7.002;2023-07-13T07:41:07;100901.53;;;24.13;43.98
78337;BME280;67610;51.588;7.002;2023-07-13T07:43:32;100895.06;;;24.26;44.42
78337;BME280;67610;51.588;7.002;2023-07-13T07:45:57;100903.63;;;24.46;44.23
78337;BME280;67610;51.588;7.002;2023-07-13T07:48:23;100903.72;;;24.51;43.58
78337;BME280;67610;51.588;7.002;2023-07-13T07:50:48;100902.75;;;24.69;43.00
78337;BME280;67610;51.588;7.002;2023-07-13T07:53:14;100900.31;;;24.79;42.49
78337;BME280;67610;51.588;7.002;2023-07-13T07:55:39;100894.09;;;25.18;42.10
78337;BME280;67610;51.588;7.002;2023-07-13T07:58:05;100898.59;;;25.74;41.24
78337;BME280;67610;51.588;7.002;2023-07-13T08:00:31;100902.31;;;26.18;40.36
78337;BME280;67610;51.588;7.002;2023-07-13T08:02:58;100897.16;;;26.55;40.37
78337;BME280;67610;51.588;7.002;2023-07-13T08:05:24;100901.41;;;26.72;39.43
78337;BME280;67610;51.588;7.002;2023-07-13T08:07:49;100900.94;;;26.75;38.49
78337;BME280;67610;51.588;7.002;2023-07-13T08:10:15;100901.50;;;26.77;38.71
78337;BME280;67610;51.588;7.002;2023-07-13T08:12:41;100901.34;;;27.11;37.84
78337;BME280;67610;51.588;7.002;2023-07-13T08:15:09;100894.84;;;27.60;36.56
78337;BME280;67610;51.588;7.002;2023-07-13T08:17:35;100891.63;;;27.95;35.70
78337;BME280;67610;51.588;7.002;2023-07-13T08:20:01;100895.94;;;28.27;35.37
78337;BME280;67610;51.588;7.002;2023-07-13T08:22:26;100886.44;;;28.72;35.26
78337;BME280;67610;51.588;7.002;2023-07-13T08:24:52;100893.31;;;29.04;34.39
78337;BME280;67610;51.588;7.002;2023-07-13T08:27:24;100899.03;;;29.13;34.15
78337;BME280;67610;51.588;7.002;2023-07-13T08:29:51;100894.78;;;29.47;32.79
78337;BME280;67610;51.588;7.002;2023-07-13T08:32:17;100892.59;;;29.54;32.37
78337;BME280;67610;51.588;7.002;2023-07-13T08:34:43;100893.69;;;29.63;32.35
78337;BME280;67610;51.588;7.002;2023-07-13T08:37:08;100897.50;;;30.08;32.80
78337;BME280;67610;51.588;7.002;2023-07-13T08:39:34;100900.19;;;30.38;31.52
78337;BME280;67610;51.588;7.002;2023-07-13T08:42:02;100898.94;;;30.79;31.52
78337;BME280;67610;51.588;7.002;2023-07-13T08:44:57;100898.47;;;31.21;31.15
78337;BME280;67610;51.588;7.002;2023-07-13T08:47:26;100899.16;;;31.42;30.12
78337;BME280;67610;51.588;7.002;2023-07-13T08:49:54;100895.41;;;31.33;30.27
78337;BME280;67610;51.588;7.002;2023-07-13T08:52:38;100898.53;;;31.55;29.35
78337;BME280;67610;51.588;7.002;2023-07-13T08:55:26;100898.28;;;31.85;28.58
78337;BME280;67610;51.588;7.002;2023-07-13T08:58:00;100898.22;;;31.90;28.64
78337;BME280;67610;51.588;7.002;2023-07-13T09:00:34;100893.50;;;31.72;28.41
78337;BME280;67610;51.588;7.002;2023-07-13T09:03:02;100896.19;;;31.38;28.74
78337;BME280;67610;51.588;7.002;2023-07-13T09:05:31;100891.03;;;30.93;29.96
78337;BME280;67610;51.588;7.002;2023-07-13T09:08:13;100897.41;;;30.53;29.71
78337;BME280;67610;51.588;7.002;2023-07-13T09:10:49;100904.03;;;29.87;31.41
78337;BME280;67610;51.588;7.002;2023-07-13T09:16:20;100899.84;;;29.14;32.37
78337;BME280;67610;51.588;7.002;2023-07-13T09:18:49;100900.09;;;29.07;32.28
78337;BME280;67610;51.588;7.002;2023-07-13T09:21:20;100903.28;;;28.94;32.16
78337;BME280;67610;51.588;7.002;2023-07-13T09:23:48;100902.78;;;28.97;32.04
78337;BME280;67610;51.588;7.002;2023-07-13T09:26:21;100896.38;;;28.61;33.02
78337;BME280;67610;51.588;7.002;2023-07-13T09:29:28;100899.06;;;28.56;33.27
78337;BME280;67610;51.588;7.002;2023-07-13T09:31:57;100902.63;;;28.62;33.10
78337;BME280;67610;51.588;7.002;2023-07-13T09:34:24;100905.69;;;28.80;32.93
78337;BME280;67610;51.588;7.002;2023-07-13T09:36:49;100904.41;;;28.46;33.68
78337;BME280;67610;51.588;7.002;2023-07-13T09:39:41;100908.25;;;28.08;34.29
78337;BME280;67610;51.588;7.002;2023-07-13T09:42:17;100904.94;;;28.01;34.24
78337;BME280;67610;51.588;7.002;2023-07-13T09:47:25;100900.78;;;27.89;34.77
78337;BME280;67610;51.588;7.002;2023-07-13T09:50:06;100900.41;;;28.54;33.89
78337;BME280;67610;51.588;7.002;2023-07-13T09:52:47;100900.78;;;28.67;33.37
78337;BME280;67610;51.588;7.002;2023-07-13T09:55:25;100903.31;;;28.47;33.66
78337;BME280;67610;51.588;7.002;2023-07-13T09:57:50;100901.41;;;28.38;34.69
78337;BME280;67610;51.588;7.002;2023-07-13T10:00:26;100901.03;;;28.24;34.41
78337;BME280;67610;51.588;7.002;2023-07-13T10:03:04;100906.34;;;28.09;35.08
78337;BME280;67610;51.588;7.002;2023-07-13T10:05:41;100907.47;;;27.81;35.33
78337;BME280;67610;51.588;7.002;2023-07-13T10:08:18;100919.22;;;27.38;35.38
78337;BME280;67610;51.588;7.002;2023-07-13T10:10:44;100925.50;;;26.95;36.10
78337;BME280;67610;51.588;7.002;2023-07-13T10:15:55;100928.75;;;26.21;37.94
78337;BME280;67610;51.588;7.002;2023-07-13T10:18:22;100934.13;;;26.04;38.52
78337;BME280;67610;51.588;7.002;2023-07-13T10:20:54;100935.53;;;26.40;37.69
78337;BME280;67610;51.588;7.002;2023-07-13T10:23:27;100929.91;;;26.63;37.78
78337;BME280;67610;51.588;7.002;2023-07-13T10:25:56;100927.69;;;26.77;37.51
78337;BME280;67610;51.588;7.002;2023-07-13T10:28:29;100933.91;;;26.77;37.53
78337;BME280;67610;51.588;7.002;2023-07-13T10:30:57;100923.25;;;27.36;36.82
78337;BME280;67610;51.588;7.002;2023-07-13T10:33:23;100919.72;;;27.62;37.01
78337;BME280;67610;51.588;7.002;2023-07-13T10:35:51;100917.94;;;27.73;36.83
78337;BME280;67610;51.588;7.002;2023-07-13T10:38:21;100913.91;;;27.75;35.43
78337;BME280;67610;51.588;7.002;2023-07-13T10:41:03;100920.03;;;28.34;33.90
78337;BME280;67610;51.588;7.002;2023-07-13T10:43:41;100918.16;;;28.34;35.06
78337;BME280;67610;51.588;7.002;2023-07-13T10:46:11;100917.81;;;28.68;34.45
78337;BME280;67610;51.588;7.002;2023-07-13T10:48:39;100909.94;;;29.23;32.62
78337;BME280;67610;51.588;7.002;2023-07-13T10:51:06;100923.25;;;29.50;32.43
78337;BME280;67610;51.588;7.002;2023-07-13T10:53:34;100919.97;;;29.38;32.54
78337;BME280;67610;51.588;7.002;2023-07-13T10:56:06;100922.00;;;29.00;32.00
78337;BME280;67610;51.588;7.002;2023-07-13T10:58:38;100918.88;;;28.62;32.48
78337;BME280;67610;51.588;7.002;2023-07-13T11:01:10;100911.47;;;29.14;32.49
78337;BME280;67610;51.588;7.002;2023-07-13T11:03:59;100925.13;;;29.49;31.47
78337;BME280;67610;51.588;7.002;2023-07-13T11:08:57;100920.53;;;29.70;30.00
78337;BME280;67610;51.588;7.002;2023-07-13T11:13:57;100910.78;;;30.09;30.22
78337;BME280;67610;51.588;7.002;2023-07-13T11:21:30;100920.59;;;30.99;28.53
78337;BME280;67610;51.588;7.002;2023-07-13T11:26:40;100913.25;;;30.06;29.11
78337;BME280;67610;51.588;7.002;2023-07-13T11:29:34;100919.22;;;29.83;29.74
78337;BME280;67610;51.588;7.002;2023-07-13T11:32:21;100916.75;;;30.11;30.09
78337;BME280;67610;51.588;7.002;2023-07-13T11:34:48;100914.00;;;30.42;29.62
78337;BME280;67610;51.588;7.002;2023-07-13T11:37:16;100909.44;;;30.12;30.24
78337;BME280;67610;51.588;7.002;2023-07-13T11:39:44;100901.81;;;29.58;30.09
78337;BME280;67610;51.588;7.002;2023-07-13T11:42:13;100912.66;;;29.53;30.31
78337;BME280;67610;51.588;7.002;2023-07-13T11:44:58;100907.25;;;29.48;29.47
78337;BME280;67610;51.588;7.002;2023-07-13T11:47:26;100896.66;;;29.32;29.14
78337;BME280;67610;51.588;7.002;2023-07-13T11:49:54;100896.13;;;29.65;29.64
78337;BME280;67610;51.588;7.002;2023-07-13T11:52:36;100896.44;;;29.89;29.24
78337;BME280;67610;51.588;7.002;2023-07-13T11:55:05;100889.91;;;30.10;29.13
78337;BME280;67610;51.588;7.002;2023-07-13T11:57:43;100896.94;;;30.16;27.68
78337;BME280;67610;51.588;7.002;2023-07-13T12:00:15;100898.06;;;29.64;27.60
78337;BME280;67610;51.588;7.002;2023-07-13T12:02:47;100889.81;;;29.09;28.85
78337;BME280;67610;51.588;7.002;2023-07-13T12:05:15;100890.34;;;29.06;29.42
78337;BME280;67610;51.588;7.002;2023-07-13T12:07:43;100889.72;;;28.89;29.58
78337;BME280;67610;51.588;7.002;2023-07-13T12:12:48;100896.19;;;28.26;30.04
78337;BME280;67610;51.588;7.002;2023-07-13T12:15:13;100886.22;;;28.36;30.59
78337;BME280;67610;51.588;7.002;2023-07-13T12:17:40;100885.22;;;28.53;30.53
78337;BME280;67610;51.588;7.002;2023-07-13T12:20:26;100890.66;;;28.53;30.25
78337;BME280;67610;51.588;7.002;2023-07-13T12:22:52;100885.84;;;28.60;30.67
78337;BME280;67610;51.588;7.002;2023-07-13T12:25:18;100882.63;;;28.63;30.34
78337;BME280;67610;51.588;7.002;2023-07-13T12:27:50;100878.84;;;28.69;30.11
78337;BME280;67610;51.588;7.002;2023-07-13T12:30:29;100879.41;;;28.76;30.48
78337;BME280;67610;51.588;7.002;2023-07-13T12:33:07;100876.69;;;28.76;30.27
78337;BME280;67610;51.588;7.002;2023-07-13T12:35:42;100872.84;;;28.62;29.65
78337;BME280;67610;51.588;7.002;2023-07-13T12:38:10;100879.19;;;28.30;29.88
78337;BME280;67610;51.588;7.002;2023-07-13T12:40:37;100880.91;;;28.05;30.86
78337;BME280;67610;51.588;7.002;2023-07-13T12:43:03;100886.00;;;28.01;30.44
78337;BME280;67610;51.588;7.002;2023-07-13T12:45:30;100895.06;;;27.85;31.10
78337;BME280;67610;51.588;7.002;2023-07-13T12:48:21;100895.25;;;28.10;30.66
78337;BME280;67610;51.588;7.002;2023-07-13T12:50:48;100892.72;;;28.35;30.56
78337;BME280;67610;51.588;7.002;2023-07-13T12:53:35;100896.50;;;28.34;30.79
78337;BME280;67610;51.588;7.002;2023-07-13T12:56:04;100891.84;;;28.25;30.38
78337;BME280;67610;51.588;7.002;2023-07-13T12:58:40;100908.84;;;27.84;31.03
78337;BME280;67610;51.588;7.002;2023-07-13T13:01:10;100942.88;;;27.53;31.46
78337;BME280;67610;51.588;7.002;2023-07-13T13:03:56;100967.38;;;26.98;34.63
78337;BME280;67610;51.588;7.002;2023-07-13T13:06:28;100990.47;;;26.34;35.29
78337;BME280;67610;51.588;7.002;2023-07-13T13:08:56;100984.31;;;25.60;37.69
78337;BME280;67610;51.588;7.002;2023-07-13T13:11:24;100995.81;;;25.16;40.38
78337;BME280;67610;51.588;7.002;2023-07-13T13:13:51;100994.94;;;24.76;41.60
78337;BME280;67610;51.588;7.002;2023-07-13T13:18:53;100992.78;;;24.08;44.71
78337;BME280;67610;51.588;7.002;2023-07-13T13:21:19;100996.09;;;23.92;45.45